Thursday, July 24, 2014
06:33 UTC
  |  Log In   |  Register Free
Airport Search:

Raleigh-Durham International Airport
(KRDU)

Raleigh-Durham International Airport Diagram
No Airport Diagram Available

Airport information sponsored by:
Landmark Aviation - RDU at Raleigh-Durham International (KRDU), Raleigh/Durham, NC
FAA data valid effective May 29, 2014 until July 24, 2014 (unless otherwise noted).

 
 
 
 
 
 
 
 
 
 
 
 
 
 

Current Aviation Weather for Raleigh-Durham International Airport (KRDU)

The most recent METAR observation for KRDU was updated at: 0551 UTC
METAR Summary (Translated METAR)
KRDU
240551Z 23007KT 10SM FEW120 24/22 A2992 RMK AO2 SLP127 T02440217 10283 20239 57003 $
KIGX
(14 nm NW from KRDU)
240456Z AUTO 23004KT 10SM SCT110 25/22 A2994 RMK AO2 SLP130 T02500222 403330211
TAF Summary (Translated TAF)
KRDU
240539Z 2406/2506 23008KT P6SM SCT040 SCT120 FM241600 25007KT P6SM VCSH BKN040 FM242200 VRB05KT P6SM BKN035
  Airport Weather Conditions for KRDU

 Current Weather at RDU
76° F
A Few Clouds
Southwest winds at 8.1 mph
RDU NOAA Radar

Pressure: 29.92 in
Humidity: 85%
Wind: Southwest at 8.1 MPH (7 KT)
Dew Point: 71.1°F
Visibility: 10.00 mi


Airport Weather Forecast for KRDU

Translated METAR and TAF for KRDU
Translated METAR for KRDU (0627 UTC 24 July 2014)
found at http://aviationweather.gov/adds/metars/
 
METAR text: KRDU 240551Z 23007KT 10SM FEW120 24/22 A2992 RMK AO2 SLP127 T02440217 10283 20239 57003 $
Conditions at: KRDU (RALEIGH/DURHAM , NC, US) observed 0551 UTC 24 July 2014
Temperature: 24.4°C (76°F)
Dewpoint: 21.7°C (71°F) [RH = 85%]
Pressure (altimeter): 29.92 inches Hg (1013.3 mb)
[Sea-level pressure: 1012.7 mb]
Winds: from the SW (230 degrees) at 8 MPH (7 knots; 3.6 m/s)
Visibility: 10 or more miles (16+ km)
Ceiling: at least 12,000 feet AGL
Clouds: few clouds at 12000 feet AGL
Weather:
SOME DATA ABOVE MAY BE INACCURATE!!!
"$" is an indication the sensor requires maintenance
Translated TAF for KRDU
Forecast for: KRDU (RALEIGH/DURHAM , NC, US)
TAF Text: KRDU 240539Z 2406/2506 23008KT P6SM SCT040 SCT120
Forecast period: 0600 to 1600 UTC 24 July 2014
Forecast type: FROM: standard forecast or significant change
Winds: from the SW (230 degrees) at 9 MPH (8 knots; 4.2 m/s)
Visibility: 6 or more miles (10+ km)
Clouds: scattered clouds at 4000 feet AGL
scattered clouds at 12000 feet AGL
Weather: no significant weather forecast for this period
TAF Text: FM241600 25007KT P6SM VCSH BKN040
Forecast period: 1600 to 2200 UTC 24 July 2014
Forecast type: FROM: standard forecast or significant change
Winds: from the WSW (250 degrees) at 8 MPH (7 knots; 3.6 m/s)
Visibility: 6 or more miles (10+ km)
Ceiling: 4000 feet AGL
Clouds: broken clouds at 4000 feet AGL
Weather: VCSH  (showers in vicinity)
TAF Text: FM242200 VRB05KT P6SM BKN035
Forecast period: 2200 UTC 24 July 2014 to 0600 UTC 25 July 2014
Forecast type: FROM: standard forecast or significant change
Winds: variable direction winds at 6 MPH (5 knots; 2.6 m/s)
Visibility: 6 or more miles (10+ km)
Ceiling: 3500 feet AGL
Clouds: broken clouds at 3500 feet AGL
Weather: no significant weather forecast for this period

Find All Airport Services Find A Hotel Find A Rental Car Find A Golf Course Find A Restaurant $100 Hamburger



FBO's on the Field
FBO Company Facility Photos Services Transportation Aviation Fuel Prices: Prices include tax
Catering Weather Repair Courtesy Rental Type 100LL JetA JetA+ MOGAS 8087
 
Landmark Aviation - RDU

Landmark Aviation - RDU logo
Currently rated 4.4 by 2 people
FS:
Last Updated: Jul-23
Login to update fuel prices
SS:
Contact Landmark Aviation - RDUMore FBO Information
 
Tac Air - RDU

Currently rated 1.8 by 3 people
FS:Avfuel
Last Updated: Jul-22
Login to update fuel prices
SS:
Contact Tac Air - RDUMore FBO Information
 
Add another FBO Facility Photos Catering Weather Repair Courtesy Rental Type 100LL JetA JetA+ MOGAS 8087
Services Transportation Aviation Fuel Prices: Prices include tax


GlobalAir.com Airport Resource Center model-print
model-print
model-print
model-print